Time;durP1;ratioP1;P1;durP2;ratioP2;P2;SDS_P1;SDS_P2;PMS_P1;PMS_P2;Temp;Humidity;BMP_temperature;BMP_pressure;BME280_temperature;BME280_humidity;BME280_pressure;Samples;Min_cycle;Max_cycle;Signal;HPM_P1;HPM_P2
2023/06/09 00:00:47;;;;;;;6.27;4.13;;;;;;;;;;4954678;29;20679;-73
2023/06/09 00:03:52;;;;;;;5.10;3.97;;;;;;;;;;4955760;29;20654;-73
2023/06/09 00:06:56;;;;;;;6.77;4.67;;;;;;;;;;4954885;29;20184;-73
2023/06/09 00:10:01;;;;;;;5.43;4.73;;;;;;;;;;4955718;29;20175;-73
2023/06/09 00:13:05;;;;;;;6.57;4.40;;;;;;;;;;4970717;23;20243;-73
2023/06/09 00:16:09;;;;;;;5.30;4.70;;;;;;;;;;4955337;29;20199;-73
2023/06/09 00:19:16;;;;;;;4.70;4.23;;;;;;;;;;4965867;28;20188;-73
2023/06/09 00:22:20;;;;;;;7.23;4.23;;;;;;;;;;4954411;29;20216;-72
2023/06/09 00:25:24;;;;;;;4.57;4.10;;;;;;;;;;4965501;28;20179;-73
2023/06/09 00:28:28;;;;;;;4.83;4.33;;;;;;;;;;4954434;29;20176;-72
2023/06/09 00:31:33;;;;;;;4.87;4.37;;;;;;;;;;4955099;29;20215;-72
2023/06/09 00:34:37;;;;;;;4.63;4.23;;;;;;;;;;4954329;29;20176;-73
2023/06/09 00:37:41;;;;;;;4.43;4.03;;;;;;;;;;4954531;29;20179;-73
2023/06/09 00:40:49;;;;;;;5.53;4.80;;;;;;;;;;4954111;29;20211;-72
2023/06/09 00:43:55;;;;;;;5.00;4.50;;;;;;;;;;4954477;29;20179;-73
2023/06/09 00:46:59;;;;;;;5.70;4.53;;;;;;;;;;4954212;29;20184;-72
2023/06/09 00:50:04;;;;;;;5.27;4.37;;;;;;;;;;4954942;29;20179;-73
2023/06/09 00:53:10;;;;;;;5.70;4.40;;;;;;;;;;4955115;28;20179;-73
2023/06/09 00:56:15;;;;;;;5.40;4.40;;;;;;;;;;4947101;29;20187;-73
2023/06/09 00:59:21;;;;;;;5.93;4.77;;;;;;;;;;4958299;29;20179;-73
2023/06/09 01:02:25;;;;;;;5.20;4.40;;;;;;;;;;4935902;29;20690;-73
2023/06/09 01:05:34;;;;;;;7.40;4.57;;;;;;;;;;4958693;29;20198;-73
2023/06/09 01:08:57;;;;;;;6.90;5.17;;;;;;;;;;4946852;29;20191;-73
2023/06/09 01:12:23;;;;;;;5.60;4.73;;;;;;;;;;4968743;28;20222;-73
2023/06/09 01:15:36;;;;;;;5.57;5.00;;;;;;;;;;4958000;29;20520;-73
2023/06/09 01:18:42;;;;;;;5.60;4.80;;;;;;;;;;4957935;29;20191;-73
2023/06/09 01:21:50;;;;;;;5.23;4.73;;;;;;;;;;4957441;29;20235;-73
2023/06/09 01:25:19;;;;;;;5.10;4.60;;;;;;;;;;4957820;29;20180;-73
2023/06/09 01:28:24;;;;;;;5.67;4.53;;;;;;;;;;4957892;29;20184;-72
2023/06/09 01:31:29;;;;;;;5.97;4.60;;;;;;;;;;4957930;29;20548;-72
2023/06/09 01:34:33;;;;;;;5.57;5.03;;;;;;;;;;4957677;29;20183;-73
2023/06/09 01:37:39;;;;;;;5.73;4.83;;;;;;;;;;4958148;29;20646;-73
2023/06/09 01:40:43;;;;;;;6.27;4.97;;;;;;;;;;4957921;29;20231;-73
2023/06/09 01:43:48;;;;;;;8.67;5.73;;;;;;;;;;4957169;29;20199;-72
2023/06/09 01:46:52;;;;;;;6.17;5.37;;;;;;;;;;4957468;29;20203;-73
2023/06/09 01:50:03;;;;;;;7.17;5.17;;;;;;;;;;4946539;29;20659;-73
2023/06/09 01:53:14;;;;;;;6.73;5.33;;;;;;;;;;4958444;29;20508;-73
2023/06/09 01:56:22;;;;;;;6.03;4.97;;;;;;;;;;4946177;29;20184;-72
2023/06/09 01:59:33;;;;;;;6.50;4.90;;;;;;;;;;4957237;29;20184;-73
2023/06/09 02:02:40;;;;;;;6.77;5.67;;;;;;;;;;4956811;29;20211;-73
2023/06/09 02:05:45;;;;;;;6.13;5.30;;;;;;;;;;4956401;28;20188;-73
2023/06/09 02:08:50;;;;;;;7.00;5.63;;;;;;;;;;4968192;28;20188;-73
2023/06/09 02:11:54;;;;;;;8.23;5.30;;;;;;;;;;4956804;29;20694;-73
2023/06/09 02:14:59;;;;;;;6.27;5.13;;;;;;;;;;4956714;29;20183;-73
2023/06/09 02:18:04;;;;;;;7.80;6.30;;;;;;;;;;4956935;29;20191;-73
2023/06/09 02:21:08;;;;;;;7.90;6.13;;;;;;;;;;4956596;29;20230;-73
2023/06/09 02:24:12;;;;;;;6.93;6.20;;;;;;;;;;4946093;29;20183;-73
2023/06/09 02:27:16;;;;;;;6.67;5.97;;;;;;;;;;4956534;29;20203;-73
2023/06/09 02:30:21;;;;;;;7.17;5.57;;;;;;;;;;4956718;29;20183;-73
2023/06/09 02:33:25;;;;;;;8.43;6.13;;;;;;;;;;4957437;29;20630;-73
2023/06/09 02:36:29;;;;;;;6.67;5.10;;;;;;;;;;4956391;29;20175;-73
2023/06/09 02:39:34;;;;;;;7.20;5.37;;;;;;;;;;4956792;29;20187;-73
2023/06/09 02:42:39;;;;;;;6.63;5.53;;;;;;;;;;4956231;29;20714;-73
2023/06/09 02:45:44;;;;;;;8.67;6.30;;;;;;;;;;4945395;29;20184;-73
2023/06/09 02:48:49;;;;;;;7.73;5.03;;;;;;;;;;4956151;29;20639;-73
2023/06/09 02:51:53;;;;;;;6.27;5.60;;;;;;;;;;4956729;29;20211;-72
2023/06/09 02:54:57;;;;;;;8.03;5.77;;;;;;;;;;4945221;29;20637;-73
2023/06/09 02:58:02;;;;;;;6.93;6.13;;;;;;;;;;4944925;29;20540;-73
2023/06/09 03:01:07;;;;;;;6.03;5.43;;;;;;;;;;4944995;29;20230;-73
2023/06/09 03:04:12;;;;;;;6.20;5.60;;;;;;;;;;4956111;29;20516;-73
2023/06/09 03:07:21;;;;;;;6.00;5.40;;;;;;;;;;4956046;29;20175;-73
2023/06/09 03:10:26;;;;;;;5.33;4.83;;;;;;;;;;4945018;29;20180;-73
2023/06/09 03:13:30;;;;;;;7.37;5.23;;;;;;;;;;4944530;29;20207;-73
2023/06/09 03:16:33;;;;;;;5.93;5.33;;;;;;;;;;4954491;28;20199;-73
2023/06/09 03:19:38;;;;;;;6.87;5.70;;;;;;;;;;4955443;29;20663;-73
2023/06/09 03:22:42;;;;;;;6.53;5.50;;;;;;;;;;4933414;29;20710;-73
2023/06/09 03:25:49;;;;;;;8.33;6.07;;;;;;;;;;4955678;29;20517;-73
2023/06/09 03:28:54;;;;;;;6.80;6.10;;;;;;;;;;4944523;29;20179;-73
2023/06/09 03:31:58;;;;;;;6.60;6.00;;;;;;;;;;4955495;29;20215;-73
2023/06/09 03:35:03;;;;;;;7.73;5.77;;;;;;;;;;4944418;29;20199;-73
2023/06/09 03:38:08;;;;;;;7.87;6.07;;;;;;;;;;4944138;29;20203;-73
2023/06/09 03:41:13;;;;;;;9.07;5.90;;;;;;;;;;4943966;29;20710;-73
2023/06/09 03:44:18;;;;;;;6.93;6.00;;;;;;;;;;4955433;29;20187;-73
2023/06/09 03:47:22;;;;;;;8.10;6.57;;;;;;;;;;4954938;29;20210;-73
2023/06/09 03:50:26;;;;;;;7.53;6.07;;;;;;;;;;4955363;29;20199;-73
2023/06/09 03:53:30;;;;;;;9.33;6.20;;;;;;;;;;4944134;29;20199;-72
2023/06/09 03:56:34;;;;;;;6.47;5.77;;;;;;;;;;4944077;29;20642;-72
2023/06/09 03:59:39;;;;;;;8.70;7.03;;;;;;;;;;4955893;29;20183;-72
2023/06/09 04:02:44;;;;;;;8.03;6.83;;;;;;;;;;4943732;29;20223;-72
2023/06/09 04:05:50;;;;;;;8.50;6.67;;;;;;;;;;4954720;29;20180;-72
2023/06/09 04:08:54;;;;;;;10.77;6.63;;;;;;;;;;4954690;29;20175;-72
2023/06/09 04:11:59;;;;;;;6.60;5.80;;;;;;;;;;4954586;29;20586;-73
2023/06/09 04:15:06;;;;;;;6.53;5.63;;;;;;;;;;4954603;29;20183;-73
2023/06/09 04:18:11;;;;;;;5.23;4.10;;;;;;;;;;4954540;29;20179;-73
2023/06/09 04:21:16;;;;;;;9.77;6.50;;;;;;;;;;4943385;29;20230;-73
2023/06/09 04:24:20;;;;;;;6.20;5.17;;;;;;;;;;4955540;29;20179;-73
2023/06/09 04:27:26;;;;;;;6.37;5.23;;;;;;;;;;4954296;28;20184;-73
2023/06/09 04:30:34;;;;;;;6.77;5.00;;;;;;;;;;4943710;29;20187;-72
2023/06/09 04:33:39;;;;;;;5.03;4.53;;;;;;;;;;4954700;29;20175;-73
2023/06/09 04:36:44;;;;;;;6.73;5.23;;;;;;;;;;4954338;29;20516;-72
2023/06/09 04:39:49;;;;;;;6.40;4.70;;;;;;;;;;4954505;29;20179;-73
2023/06/09 04:42:59;;;;;;;7.90;4.87;;;;;;;;;;4943219;29;20211;-73
2023/06/09 04:46:06;;;;;;;7.20;5.20;;;;;;;;;;4954768;29;20188;-72
2023/06/09 04:49:10;;;;;;;5.67;5.13;;;;;;;;;;4965261;28;20639;-73
2023/06/09 04:52:17;;;;;;;6.27;5.63;;;;;;;;;;4943123;29;20215;-73
2023/06/09 04:55:25;;;;;;;6.17;5.00;;;;;;;;;;4954363;29;20203;-73
2023/06/09 04:58:31;;;;;;;6.47;5.83;;;;;;;;;;4954076;29;20203;-73
2023/06/09 05:01:37;;;;;;;6.17;5.57;;;;;;;;;;4943040;29;20226;-73
2023/06/09 05:04:41;;;;;;;5.83;5.23;;;;;;;;;;4954021;29;20207;-73
2023/06/09 05:07:46;;;;;;;8.53;6.03;;;;;;;;;;4954012;29;20203;-73
2023/06/09 05:10:52;;;;;;;6.63;5.97;;;;;;;;;;4953937;29;20698;-73
2023/06/09 05:13:56;;;;;;;7.57;6.10;;;;;;;;;;4954264;29;20180;-73
2023/06/09 05:17:02;;;;;;;6.40;5.70;;;;;;;;;;4943251;29;20199;-73
2023/06/09 05:20:10;;;;;;;6.83;6.10;;;;;;;;;;4954102;29;20639;-73
2023/06/09 05:23:16;;;;;;;6.90;6.17;;;;;;;;;;4942999;29;20228;-73
2023/06/09 05:26:20;;;;;;;6.37;5.77;;;;;;;;;;4943131;29;20179;-72
2023/06/09 05:29:25;;;;;;;7.33;6.20;;;;;;;;;;4943064;29;20183;-73
2023/06/09 05:32:29;;;;;;;7.33;6.27;;;;;;;;;;4953760;29;20555;-72
2023/06/09 05:35:34;;;;;;;6.90;6.20;;;;;;;;;;4954034;29;20180;-72
2023/06/09 05:38:38;;;;;;;6.40;5.80;;;;;;;;;;4965112;28;20188;-72
2023/06/09 05:41:43;;;;;;;7.97;5.50;;;;;;;;;;4956665;29;20227;-73
2023/06/09 05:44:46;;;;;;;6.27;5.67;;;;;;;;;;4957522;29;20635;-72
2023/06/09 05:47:51;;;;;;;7.50;6.20;;;;;;;;;;4958015;29;20646;-73
2023/06/09 05:50:57;;;;;;;5.63;5.03;;;;;;;;;;4957853;29;20212;-72
2023/06/09 05:54:01;;;;;;;6.83;5.67;;;;;;;;;;4957923;29;20180;-73
2023/06/09 05:57:05;;;;;;;6.33;5.37;;;;;;;;;;4957990;29;20183;-73
2023/06/09 06:00:09;;;;;;;8.77;5.33;;;;;;;;;;4957286;29;20188;-73
2023/06/09 06:03:16;;;;;;;6.00;5.00;;;;;;;;;;4957901;29;20211;-72
2023/06/09 06:06:20;;;;;;;6.33;4.93;;;;;;;;;;4968256;28;20180;-73
2023/06/09 06:09:24;;;;;;;7.10;4.83;;;;;;;;;;4957479;29;20203;-72
2023/06/09 06:12:29;;;;;;;5.57;4.83;;;;;;;;;;4971592;23;20219;-73
2023/06/09 06:15:33;;;;;;;5.17;4.67;;;;;;;;;;4956947;29;20191;-73
2023/06/09 06:18:37;;;;;;;5.70;5.13;;;;;;;;;;4957989;29;20183;-73
2023/06/09 06:21:42;;;;;;;6.63;4.93;;;;;;;;;;4956761;29;20227;-73
2023/06/09 06:24:46;;;;;;;5.47;4.77;;;;;;;;;;4956876;29;20191;-73
2023/06/09 06:27:50;;;;;;;6.83;5.10;;;;;;;;;;4956514;29;20666;-73
2023/06/09 06:30:55;;;;;;;6.83;5.00;;;;;;;;;;4957469;29;20219;-73
2023/06/09 06:33:59;;;;;;;6.17;5.23;;;;;;;;;;4957374;29;20180;-73
2023/06/09 06:37:03;;;;;;;7.07;4.83;;;;;;;;;;4957411;29;20191;-73
2023/06/09 06:40:08;;;;;;;7.33;4.70;;;;;;;;;;4956593;29;20183;-73
2023/06/09 06:43:12;;;;;;;5.00;4.50;;;;;;;;;;4956934;29;20215;-73
2023/06/09 06:46:27;;;;;;;5.63;4.83;;;;;;;;;;4956212;29;20532;-73
2023/06/09 06:49:31;;;;;;;7.00;5.27;;;;;;;;;;4957165;29;20187;-73
2023/06/09 06:52:36;;;;;;;5.77;5.17;;;;;;;;;;4956540;28;20211;-73
2023/06/09 06:55:40;;;;;;;7.23;4.63;;;;;;;;;;4956560;29;20184;-73
2023/06/09 06:58:44;;;;;;;6.93;4.60;;;;;;;;;;4957276;29;20184;-74
2023/06/09 07:01:49;;;;;;;4.67;4.27;;;;;;;;;;4956526;29;20705;-73
2023/06/09 07:04:53;;;;;;;5.37;4.77;;;;;;;;;;4956573;29;20539;-73
2023/06/09 07:07:57;;;;;;;5.10;4.60;;;;;;;;;;4956841;29;20175;-73
2023/06/09 07:11:01;;;;;;;4.97;4.57;;;;;;;;;;4956389;29;20701;-73
2023/06/09 07:14:05;;;;;;;5.77;5.17;;;;;;;;;;4955508;29;20207;-74
2023/06/09 07:17:10;;;;;;;5.70;4.27;;;;;;;;;;4944804;29;20180;-74
2023/06/09 07:20:14;;;;;;;5.80;4.97;;;;;;;;;;4956392;29;20199;-74
2023/06/09 07:23:18;;;;;;;7.03;4.23;;;;;;;;;;4956196;29;20227;-74
2023/06/09 07:26:22;;;;;;;5.17;4.50;;;;;;;;;;4956377;29;20536;-73
2023/06/09 07:29:27;;;;;;;4.67;4.27;;;;;;;;;;4956450;29;20187;-73
2023/06/09 07:32:31;;;;;;;5.17;4.30;;;;;;;;;;4956044;29;20211;-73
2023/06/09 07:35:35;;;;;;;5.57;4.40;;;;;;;;;;4955152;29;20528;-73
2023/06/09 07:38:43;;;;;;;5.23;4.30;;;;;;;;;;4966283;28;20185;-73
2023/06/09 07:41:47;;;;;;;4.40;4.03;;;;;;;;;;4955243;29;20699;-74
2023/06/09 07:44:51;;;;;;;6.40;4.10;;;;;;;;;;4943945;29;20202;-73
2023/06/09 07:47:55;;;;;;;4.33;3.90;;;;;;;;;;4944289;29;20188;-73
2023/06/09 07:51:02;;;;;;;5.17;4.33;;;;;;;;;;4955755;29;20217;-73
2023/06/09 07:54:07;;;;;;;4.60;4.03;;;;;;;;;;4955005;29;20178;-73
2023/06/09 07:57:11;;;;;;;4.80;4.10;;;;;;;;;;4955205;29;20547;-73
2023/06/09 08:00:15;;;;;;;3.80;3.40;;;;;;;;;;4955910;29;20670;-73
2023/06/09 08:03:20;;;;;;;4.07;3.78;;;;;;;;;;4943437;29;20204;-73
2023/06/09 08:06:25;;;;;;;4.10;3.30;;;;;;;;;;4955516;29;20181;-73
2023/06/09 08:09:29;;;;;;;3.90;3.50;;;;;;;;;;4955545;29;20183;-73
2023/06/09 08:12:36;;;;;;;4.43;4.03;;;;;;;;;;4955278;29;20212;-74
2023/06/09 08:15:40;;;;;;;4.55;3.15;;;;;;;;;;4954898;29;20184;-73
2023/06/09 08:18:44;;;;;;;6.90;3.45;;;;;;;;;;4955736;29;20184;-74
2023/06/09 08:21:48;;;;;;;7.80;3.40;;;;;;;;;;4954444;29;20224;-74
2023/06/09 08:24:52;;;;;;;18.25;3.42;;;;;;;;;;4955490;29;20191;-74
2023/06/09 08:27:56;;;;;;;4.22;3.65;;;;;;;;;;4954519;29;20186;-74
2023/06/09 08:31:01;;;;;;;3.83;3.05;;;;;;;;;;4955116;29;20222;-74
2023/06/09 08:34:06;;;;;;;6.35;3.60;;;;;;;;;;4955125;29;20195;-74
2023/06/09 08:37:10;;;;;;;5.38;3.88;;;;;;;;;;4955148;29;20642;-74
2023/06/09 08:40:14;;;;;;;4.95;3.10;;;;;;;;;;4955685;29;20544;-74
2023/06/09 08:43:18;;;;;;;3.83;3.13;;;;;;;;;;4955002;29;20205;-74
2023/06/09 08:46:25;;;;;;;4.28;3.50;;;;;;;;;;4955034;29;20187;-74
2023/06/09 08:49:30;;;;;;;5.65;3.28;;;;;;;;;;4954479;29;20646;-74
2023/06/09 08:52:35;;;;;;;5.03;2.80;;;;;;;;;;4954936;29;20222;-74
2023/06/09 08:55:41;;;;;;;5.20;2.67;;;;;;;;;;4954714;29;20188;-74
2023/06/09 08:58:47;;;;;;;3.72;3.08;;;;;;;;;;4954949;29;20186;-74
2023/06/09 09:01:52;;;;;;;3.22;2.92;;;;;;;;;;4954343;29;20226;-74
2023/06/09 09:04:56;;;;;;;6.43;3.10;;;;;;;;;;4954881;29;20179;-74
2023/06/09 09:08:02;;;;;;;3.95;3.08;;;;;;;;;;4954854;29;20183;-74
2023/06/09 09:11:07;;;;;;;4.85;3.03;;;;;;;;;;4953928;29;20216;-74
2023/06/09 09:14:14;;;;;;;5.07;3.05;;;;;;;;;;4956345;28;20206;-74
2023/06/09 09:17:20;;;;;;;3.97;3.22;;;;;;;;;;4958843;29;20198;-74
2023/06/09 09:20:32;;;;;;;4.28;2.70;;;;;;;;;;4958719;29;20660;-74
2023/06/09 09:23:38;;;;;;;4.57;2.88;;;;;;;;;;4958664;29;20205;-74
2023/06/09 09:26:43;;;;;;;5.63;2.90;;;;;;;;;;4958745;29;20187;-74
2023/06/09 09:29:48;;;;;;;3.75;3.20;;;;;;;;;;4958375;29;20186;-74
2023/06/09 09:32:53;;;;;;;3.72;2.92;;;;;;;;;;4958571;29;20187;-74
2023/06/09 09:35:58;;;;;;;4.00;3.20;;;;;;;;;;4958254;29;20181;-74
2023/06/09 09:39:05;;;;;;;4.57;3.05;;;;;;;;;;4957661;29;20634;-74
2023/06/09 09:42:10;;;;;;;6.32;3.08;;;;;;;;;;4958204;29;20229;-74
2023/06/09 09:45:25;;;;;;;3.55;3.25;;;;;;;;;;4957277;29;20180;-74
2023/06/09 09:48:29;;;;;;;3.65;2.80;;;;;;;;;;4958289;29;20188;-74
2023/06/09 09:51:35;;;;;;;2.90;2.58;;;;;;;;;;4957888;29;20219;-74
2023/06/09 09:54:39;;;;;;;3.63;2.72;;;;;;;;;;4958223;29;20176;-74
2023/06/09 09:57:44;;;;;;;4.47;2.60;;;;;;;;;;4957145;29;20176;-74
2023/06/09 10:00:50;;;;;;;2.70;2.50;;;;;;;;;;4956988;29;20215;-74
2023/06/09 10:03:55;;;;;;;3.63;2.50;;;;;;;;;;4958004;29;20546;-74
2023/06/09 10:07:01;;;;;;;2.97;2.53;;;;;;;;;;4957761;29;20192;-74
2023/06/09 10:10:08;;;;;;;3.65;2.65;;;;;;;;;;4957980;29;20184;-74
2023/06/09 10:13:13;;;;;;;3.97;2.60;;;;;;;;;;4956681;29;20233;-75
2023/06/09 10:16:18;;;;;;;2.72;2.30;;;;;;;;;;4957555;29;20203;-75
2023/06/09 10:19:23;;;;;;;2.67;2.35;;;;;;;;;;4957711;29;20670;-74
2023/06/09 10:22:27;;;;;;;2.95;2.65;;;;;;;;;;4957384;29;20220;-74
2023/06/09 10:25:32;;;;;;;5.72;3.25;;;;;;;;;;4956604;28;20180;-74
2023/06/09 10:28:37;;;;;;;3.85;2.53;;;;;;;;;;4956749;29;20183;-74
2023/06/09 10:31:45;;;;;;;4.05;2.78;;;;;;;;;;4956306;29;20219;-74
2023/06/09 10:34:51;;;;;;;4.70;2.33;;;;;;;;;;4957345;29;20180;-74
2023/06/09 10:37:57;;;;;;;2.85;2.55;;;;;;;;;;4957464;29;20192;-74
2023/06/09 10:41:33;;;;;;;3.45;2.40;;;;;;;;;;4956418;29;20216;-74
2023/06/09 10:45:13;;;;;;;3.20;2.90;;;;;;;;;;4956427;29;20207;-75
2023/06/09 10:48:41;;;;;;;4.45;2.60;;;;;;;;;;4962847;28;20644;-74
2023/06/09 10:51:47;;;;;;;3.03;2.45;;;;;;;;;;4956064;29;20220;-74
2023/06/09 10:55:14;;;;;;;5.10;2.60;;;;;;;;;;4957083;29;20172;-74
2023/06/09 10:58:37;;;;;;;3.10;2.65;;;;;;;;;;4956009;29;20184;-74
2023/06/09 11:02:08;;;;;;;4.50;2.85;;;;;;;;;;4956764;29;20223;-75
2023/06/09 11:05:13;;;;;;;3.67;2.80;;;;;;;;;;4966956;28;20176;-75
2023/06/09 11:08:17;;;;;;;3.30;2.90;;;;;;;;;;4956886;29;20517;-75
2023/06/09 11:11:47;;;;;;;3.17;2.88;;;;;;;;;;4956675;29;20223;-75
2023/06/09 11:14:52;;;;;;;3.63;2.72;;;;;;;;;;4956726;29;20525;-75
2023/06/09 11:17:57;;;;;;;3.90;2.63;;;;;;;;;;4956402;29;20647;-75
2023/06/09 11:21:09;;;;;;;6.47;3.05;;;;;;;;;;4956280;29;20219;-75
2023/06/09 11:24:13;;;;;;;4.57;3.38;;;;;;;;;;4956195;29;20695;-75
2023/06/09 11:27:21;;;;;;;7.22;2.95;;;;;;;;;;4956316;29;20179;-75
2023/06/09 11:30:27;;;;;;;5.55;3.10;;;;;;;;;;4956437;29;20180;-75
2023/06/09 11:33:46;;;;;;;4.05;3.17;;;;;;;;;;4956345;29;20533;-74
2023/06/09 11:36:49;;;;;;;3.42;3.10;;;;;;;;;;4955959;28;20188;-75
2023/06/09 11:39:54;;;;;;;4.82;2.95;;;;;;;;;;4956159;29;20180;-75
2023/06/09 11:42:59;;;;;;;7.55;3.25;;;;;;;;;;4955900;29;20521;-75
2023/06/09 11:46:03;;;;;;;3.47;3.17;;;;;;;;;;4956154;29;20188;-75
2023/06/09 11:49:08;;;;;;;6.00;3.20;;;;;;;;;;4956093;29;20227;-75
2023/06/09 11:52:13;;;;;;;5.88;3.38;;;;;;;;;;4955797;29;20215;-74
2023/06/09 11:55:18;;;;;;;4.93;3.38;;;;;;;;;;4956049;28;20703;-74
2023/06/09 11:58:22;;;;;;;4.07;3.05;;;;;;;;;;4955107;29;20199;-74
2023/06/09 12:01:30;;;;;;;3.10;2.75;;;;;;;;;;4955426;29;20223;-74
2023/06/09 12:04:39;;;;;;;4.38;3.28;;;;;;;;;;4954876;29;20215;-74
2023/06/09 12:07:45;;;;;;;5.10;3.20;;;;;;;;;;4955827;29;20183;-75
2023/06/09 12:10:49;;;;;;;3.70;3.08;;;;;;;;;;4955697;29;20215;-74
2023/06/09 12:13:55;;;;;;;4.32;3.25;;;;;;;;;;4970107;23;20238;-72
2023/06/09 12:16:59;;;;;;;6.78;3.05;;;;;;;;;;4955700;29;20176;-71
2023/06/09 12:20:28;;;;;;;4.63;2.63;;;;;;;;;;4955690;29;20524;-71
2023/06/09 12:23:32;;;;;;;3.55;3.13;;;;;;;;;;4935589;29;20212;-71
2023/06/09 12:26:40;;;;;;;6.68;3.20;;;;;;;;;;4936084;29;20640;-71
2023/06/09 12:29:44;;;;;;;7.22;3.35;;;;;;;;;;4936360;29;20185;-72
2023/06/09 12:32:48;;;;;;;4.05;3.10;;;;;;;;;;4935892;29;20220;-72
2023/06/09 12:36:06;;;;;;;3.47;3.00;;;;;;;;;;4935916;29;20636;-72
2023/06/09 12:39:21;;;;;;;3.75;3.22;;;;;;;;;;4924556;29;20185;-71
2023/06/09 12:42:25;;;;;;;4.82;3.10;;;;;;;;;;4935670;29;20215;-72
2023/06/09 12:45:32;;;;;;;4.25;3.03;;;;;;;;;;4946275;29;20553;-72
2023/06/09 12:48:16;;;;;;;4.40;3.42;;;;;;;;;;4971416;23;20242;-71
2023/06/09 12:51:20;;;;;;;4.03;3.30;;;;;;;;;;4961519;28;20215;-72
2023/06/09 12:54:27;;;;;;;3.78;3.05;;;;;;;;;;4961341;29;20176;-72
2023/06/09 12:57:31;;;;;;;5.25;3.50;;;;;;;;;;4949630;29;20188;-72
2023/06/09 13:00:36;;;;;;;5.05;3.00;;;;;;;;;;4961226;29;20180;-72
2023/06/09 13:03:41;;;;;;;4.28;3.38;;;;;;;;;;4961476;29;20211;-72
2023/06/09 13:06:45;;;;;;;3.47;3.13;;;;;;;;;;4960386;29;20187;-72
2023/06/09 13:09:49;;;;;;;4.97;2.88;;;;;;;;;;4961723;29;20524;-72
2023/06/09 13:12:53;;;;;;;5.18;3.35;;;;;;;;;;4961077;28;20192;-72
2023/06/09 13:15:58;;;;;;;3.75;3.05;;;;;;;;;;4961368;29;20180;-72
2023/06/09 13:19:02;;;;;;;6.88;3.10;;;;;;;;;;4967864;23;20231;-72
2023/06/09 13:22:06;;;;;;;4.13;3.08;;;;;;;;;;4960254;29;20219;-72
2023/06/09 13:25:10;;;;;;;4.88;3.20;;;;;;;;;;4960437;29;20211;-72
2023/06/09 13:28:16;;;;;;;5.72;2.90;;;;;;;;;;4961046;29;20207;-72
2023/06/09 13:31:20;;;;;;;6.60;3.25;;;;;;;;;;4960934;28;20223;-72
2023/06/09 13:34:24;;;;;;;3.45;3.10;;;;;;;;;;4971526;28;20196;-72
2023/06/09 13:37:29;;;;;;;3.13;2.72;;;;;;;;;;4960055;28;20195;-72
2023/06/09 13:40:33;;;;;;;6.85;3.47;;;;;;;;;;4949522;28;20203;-72
2023/06/09 13:43:37;;;;;;;4.65;3.08;;;;;;;;;;4960034;29;20183;-72
2023/06/09 13:46:41;;;;;;;5.75;2.78;;;;;;;;;;4960910;29;20204;-72
2023/06/09 13:49:45;;;;;;;4.25;2.97;;;;;;;;;;4960138;29;20196;-72
2023/06/09 13:52:49;;;;;;;4.47;2.80;;;;;;;;;;4959850;29;20219;-72
2023/06/09 13:55:53;;;;;;;4.53;2.55;;;;;;;;;;4960641;29;20195;-72
2023/06/09 13:58:57;;;;;;;6.22;3.40;;;;;;;;;;4960993;28;20183;-72
2023/06/09 14:02:02;;;;;;;4.90;2.92;;;;;;;;;;4956946;28;20691;-72
2023/06/09 14:05:08;;;;;;;7.18;3.08;;;;;;;;;;4957616;29;20215;-72
2023/06/09 14:08:12;;;;;;;5.60;3.13;;;;;;;;;;4956749;29;20208;-72
2023/06/09 14:11:18;;;;;;;5.20;2.83;;;;;;;;;;4957482;29;20223;-72
2023/06/09 14:14:22;;;;;;;4.95;3.25;;;;;;;;;;4946041;29;20180;-72
2023/06/09 14:17:26;;;;;;;5.00;2.88;;;;;;;;;;4957646;29;20658;-73
2023/06/09 14:20:30;;;;;;;6.47;3.20;;;;;;;;;;4956678;29;20179;-72
2023/06/09 14:23:34;;;;;;;5.03;3.00;;;;;;;;;;4957626;29;20183;-71
2023/06/09 14:26:38;;;;;;;3.78;3.10;;;;;;;;;;4957508;29;20179;-71
2023/06/09 14:29:42;;;;;;;3.22;2.92;;;;;;;;;;4957546;29;20205;-71
2023/06/09 14:32:48;;;;;;;9.40;2.80;;;;;;;;;;4957120;29;20219;-71
2023/06/09 14:35:52;;;;;;;3.95;2.88;;;;;;;;;;4956489;29;20180;-71
2023/06/09 14:38:57;;;;;;;3.33;2.85;;;;;;;;;;4957111;29;20180;-72
2023/06/09 14:42:02;;;;;;;3.42;2.95;;;;;;;;;;4956315;29;20215;-72
2023/06/09 14:45:06;;;;;;;3.38;3.03;;;;;;;;;;4956909;29;20227;-72
2023/06/09 14:48:11;;;;;;;4.38;3.20;;;;;;;;;;4956934;29;20184;-72
2023/06/09 14:51:15;;;;;;;4.15;2.92;;;;;;;;;;4956933;29;20698;-71
2023/06/09 14:54:20;;;;;;;3.70;3.30;;;;;;;;;;4957102;29;20176;-71
2023/06/09 14:57:24;;;;;;;4.63;2.95;;;;;;;;;;4956802;29;20183;-72
2023/06/09 15:00:30;;;;;;;3.47;3.08;;;;;;;;;;4956161;29;20183;-71
2023/06/09 15:03:34;;;;;;;4.93;3.10;;;;;;;;;;4956452;29;20188;-73
2023/06/09 15:06:38;;;;;;;3.97;3.05;;;;;;;;;;4956928;29;20176;-73
2023/06/09 15:09:42;;;;;;;4.72;3.20;;;;;;;;;;4956763;29;20192;-73
2023/06/09 15:12:46;;;;;;;4.13;2.92;;;;;;;;;;4955374;28;20219;-72
2023/06/09 15:15:50;;;;;;;6.00;3.25;;;;;;;;;;4944624;29;20176;-71
2023/06/09 15:18:55;;;;;;;3.40;2.88;;;;;;;;;;4956282;29;20670;-71
2023/06/09 15:21:59;;;;;;;3.78;3.13;;;;;;;;;;4955590;29;20219;-72
2023/06/09 15:25:06;;;;;;;6.88;3.38;;;;;;;;;;4944594;29;20211;-72
2023/06/09 15:28:15;;;;;;;6.15;3.20;;;;;;;;;;4956206;29;20188;-73
2023/06/09 15:31:19;;;;;;;5.18;3.63;;;;;;;;;;4956410;29;20702;-73
2023/06/09 15:34:23;;;;;;;8.32;4.13;;;;;;;;;;4956006;29;20184;-73
2023/06/09 15:37:27;;;;;;;5.53;3.72;;;;;;;;;;4955968;29;20188;-72
2023/06/09 15:40:35;;;;;;;7.13;3.28;;;;;;;;;;4956194;29;20623;-71
2023/06/09 15:43:39;;;;;;;5.45;2.95;;;;;;;;;;4955355;29;20183;-71
2023/06/09 15:46:44;;;;;;;3.85;3.50;;;;;;;;;;4955910;29;20636;-71
2023/06/09 15:49:48;;;;;;;4.57;3.50;;;;;;;;;;4956013;29;20188;-71
2023/06/09 15:52:52;;;;;;;3.85;3.53;;;;;;;;;;4955067;29;20199;-71
2023/06/09 15:55:57;;;;;;;5.15;3.42;;;;;;;;;;4955576;29;20201;-71
2023/06/09 15:59:06;;;;;;;4.88;3.60;;;;;;;;;;4954889;29;20210;-71
2023/06/09 16:02:17;;;;;;;5.32;3.20;;;;;;;;;;4934148;29;20210;-72
2023/06/09 16:05:22;;;;;;;4.35;3.17;;;;;;;;;;4955514;29;20214;-72
2023/06/09 16:08:26;;;;;;;3.80;3.20;;;;;;;;;;4955527;29;20215;-72
2023/06/09 16:11:29;;;;;;;5.25;3.50;;;;;;;;;;4955409;29;20225;-72
2023/06/09 16:14:34;;;;;;;9.65;5.60;;;;;;;;;;4954667;29;20547;-72
2023/06/09 16:17:37;;;;;;;6.18;3.60;;;;;;;;;;4954599;29;20549;-72
2023/06/09 16:20:42;;;;;;;8.82;3.50;;;;;;;;;;4955349;29;20645;-72
2023/06/09 16:23:46;;;;;;;7.32;3.65;;;;;;;;;;4954332;28;20191;-72
2023/06/09 16:26:50;;;;;;;6.18;3.10;;;;;;;;;;4955276;29;20172;-72
2023/06/09 16:29:55;;;;;;;4.88;3.17;;;;;;;;;;4955514;29;20194;-72
2023/06/09 16:33:00;;;;;;;3.05;2.75;;;;;;;;;;4954750;29;20181;-71
2023/06/09 16:36:04;;;;;;;5.75;3.30;;;;;;;;;;4954432;29;20177;-72
2023/06/09 16:39:09;;;;;;;7.05;3.92;;;;;;;;;;4955071;29;20269;-72
2023/06/09 16:42:12;;;;;;;3.28;2.97;;;;;;;;;;4955177;29;20222;-72
2023/06/09 16:45:17;;;;;;;4.20;3.30;;;;;;;;;;4955025;29;20548;-72
2023/06/09 16:48:21;;;;;;;5.05;3.80;;;;;;;;;;4955046;29;20194;-71
2023/06/09 16:51:25;;;;;;;4.47;3.10;;;;;;;;;;4954952;29;20703;-72
2023/06/09 16:54:29;;;;;;;5.65;3.30;;;;;;;;;;4954958;29;20182;-72
2023/06/09 16:57:33;;;;;;;6.95;3.42;;;;;;;;;;4954940;29;20184;-71
2023/06/09 17:00:37;;;;;;;5.72;3.95;;;;;;;;;;4955129;29;20180;-72
2023/06/09 17:03:41;;;;;;;7.03;3.75;;;;;;;;;;4955168;29;20179;-72
2023/06/09 17:06:46;;;;;;;6.47;3.47;;;;;;;;;;4943584;29;20207;-72
2023/06/09 17:09:49;;;;;;;4.65;3.65;;;;;;;;;;4955089;29;20190;-71
2023/06/09 17:12:54;;;;;;;4.82;3.45;;;;;;;;;;4943027;29;20202;-73
2023/06/09 17:15:58;;;;;;;6.32;3.75;;;;;;;;;;4955022;29;20201;-71
2023/06/09 17:19:02;;;;;;;5.10;3.90;;;;;;;;;;4954739;29;20203;-71
2023/06/09 17:22:06;;;;;;;6.45;3.50;;;;;;;;;;4953985;29;20222;-72
2023/06/09 17:25:11;;;;;;;4.43;3.77;;;;;;;;;;4954662;29;20673;-73
2023/06/09 17:28:15;;;;;;;6.50;4.10;;;;;;;;;;4954688;29;20184;-71
2023/06/09 17:31:19;;;;;;;10.37;4.17;;;;;;;;;;4954012;29;20222;-71
2023/06/09 17:34:23;;;;;;;7.47;3.77;;;;;;;;;;4954920;29;20186;-71
2023/06/09 17:37:27;;;;;;;4.83;4.03;;;;;;;;;;4957456;29;20182;-71
2023/06/09 17:40:32;;;;;;;5.43;3.53;;;;;;;;;;4958111;29;20189;-71
2023/06/09 17:43:36;;;;;;;4.57;3.33;;;;;;;;;;4958466;29;20184;-72
2023/06/09 17:46:40;;;;;;;5.10;3.60;;;;;;;;;;4957491;29;20213;-73
2023/06/09 17:49:44;;;;;;;3.77;3.40;;;;;;;;;;4958373;29;20189;-73
2023/06/09 17:52:48;;;;;;;6.37;3.87;;;;;;;;;;4957904;29;20217;-71
2023/06/09 17:55:52;;;;;;;5.30;3.63;;;;;;;;;;4957925;29;20657;-71
2023/06/09 17:58:56;;;;;;;11.53;4.43;;;;;;;;;;4957381;29;20196;-73
2023/06/09 18:02:01;;;;;;;6.57;3.70;;;;;;;;;;4957863;29;20227;-73
2023/06/09 18:05:06;;;;;;;4.17;3.77;;;;;;;;;;4957859;29;20185;-71
2023/06/09 18:08:10;;;;;;;5.33;3.57;;;;;;;;;;4957268;29;20191;-71
2023/06/09 18:11:15;;;;;;;5.23;4.03;;;;;;;;;;4957192;29;20221;-71
2023/06/09 18:14:19;;;;;;;7.13;4.30;;;;;;;;;;4957587;29;20188;-72
2023/06/09 18:17:23;;;;;;;5.00;3.60;;;;;;;;;;4956781;29;20210;-72
2023/06/09 18:20:27;;;;;;;5.90;4.40;;;;;;;;;;4956633;29;20190;-72
2023/06/09 18:23:31;;;;;;;5.43;4.67;;;;;;;;;;4957594;29;20186;-72
2023/06/09 18:26:36;;;;;;;4.30;3.90;;;;;;;;;;4956654;29;20204;-72
2023/06/09 18:29:40;;;;;;;6.00;4.17;;;;;;;;;;4971936;23;20700;-72
2023/06/09 18:32:44;;;;;;;7.07;3.90;;;;;;;;;;4957388;29;20218;-73